createdAt,value
2023-02-28T00:01:16.712Z,102061.72
2023-02-28T00:03:43.465Z,102071.50
2023-02-28T00:06:13.389Z,102069.28
2023-02-28T00:08:40.204Z,102064.25
2023-02-28T00:11:07.915Z,102062.44
2023-02-28T00:13:40.338Z,102063.28
2023-02-28T00:16:14.400Z,102065.78
2023-02-28T00:18:41.051Z,102068.16
2023-02-28T00:21:08.272Z,102071.94
2023-02-28T00:23:35.668Z,102074.84
2023-02-28T00:26:02.652Z,102069.81
2023-02-28T00:28:29.526Z,102072.75
2023-02-28T00:30:56.033Z,102064.53
2023-02-28T00:33:22.543Z,102070.09
2023-02-28T00:35:49.783Z,102068.69
2023-02-28T00:38:16.686Z,102068.09
2023-02-28T00:40:43.164Z,102063.38
2023-02-28T00:43:09.900Z,102060.28
2023-02-28T00:45:36.413Z,102060.81
2023-02-28T00:48:03.133Z,102061.22
2023-02-28T00:50:29.689Z,102061.63
2023-02-28T00:52:56.133Z,102075.19
2023-02-28T00:55:22.750Z,102064.94
2023-02-28T00:57:49.185Z,102061.75
2023-02-28T01:00:16.181Z,102066.59
2023-02-28T01:02:42.670Z,102065.19
2023-02-28T01:05:09.441Z,102061.00
2023-02-28T01:07:35.937Z,102068.91
2023-02-28T01:10:02.654Z,102061.38
2023-02-28T01:12:30.917Z,102067.09
2023-02-28T01:14:57.599Z,102070.16
2023-02-28T01:17:24.199Z,102075.72
2023-02-28T01:19:50.651Z,102076.84
2023-02-28T01:22:17.142Z,102070.94
2023-02-28T01:24:43.627Z,102067.59
2023-02-28T01:27:10.116Z,102066.19
2023-02-28T01:29:36.965Z,102062.94
2023-02-28T01:32:03.932Z,102058.59
2023-02-28T01:34:30.672Z,102057.19
2023-02-28T01:36:59.887Z,102073.09
2023-02-28T01:39:27.675Z,102063.59
2023-02-28T01:41:54.244Z,102060.47
2023-02-28T01:44:59.102Z,102054.38
2023-02-28T01:47:29.948Z,102060.75
2023-02-28T01:49:56.829Z,102050.66
2023-02-28T01:52:23.673Z,102043.53
2023-02-28T01:54:53.667Z,102050.66
2023-02-28T01:57:25.010Z,102035.97
2023-02-28T01:59:57.451Z,102033.59
2023-02-28T02:02:25.396Z,102039.41
2023-02-28T02:04:57.738Z,102032.16
2023-02-28T02:07:26.354Z,102035.47
2023-02-28T02:10:03.249Z,102030.75
2023-02-28T02:12:32.855Z,102030.16
2023-02-28T02:15:06.588Z,102030.44
2023-02-28T02:17:43.735Z,102034.88
2023-02-28T02:20:45.526Z,102024.06
2023-02-28T02:23:40.593Z,102021.88
2023-02-28T02:26:48.347Z,102023.81
2023-02-28T02:29:24.886Z,102026.28
2023-02-28T02:32:12.609Z,102032.53
2023-02-28T02:34:47.869Z,102020.78
2023-02-28T02:37:14.412Z,102029.25
2023-02-28T02:39:53.897Z,102018.25
2023-02-28T02:42:35.966Z,102021.06
2023-02-28T02:45:10.032Z,102012.63
2023-02-28T02:47:38.743Z,102017.47
2023-02-28T02:50:13.532Z,102017.22
2023-02-28T02:52:45.729Z,102027.13
2023-02-28T02:55:14.279Z,102032.66
2023-02-28T02:57:56.637Z,102028.91
2023-02-28T03:00:29.195Z,102035.56
2023-02-28T03:02:57.306Z,102035.97
2023-02-28T03:05:31.325Z,102035.84
2023-02-28T03:07:57.956Z,102036.19
2023-02-28T03:10:51.153Z,102034.34
2023-02-28T03:13:34.848Z,102037.41
2023-02-28T03:16:28.629Z,102031.97
2023-02-28T03:19:04.115Z,102036.19
2023-02-28T03:21:49.486Z,102041.59
2023-02-28T03:24:24.400Z,102034.16
2023-02-28T03:27:02.642Z,102043.78
2023-02-28T03:29:40.393Z,102041.28
2023-02-28T03:32:22.574Z,102047.53
2023-02-28T03:35:04.740Z,102044.03
2023-02-28T03:37:36.899Z,102049.00
2023-02-28T03:40:13.782Z,102049.84
2023-02-28T03:42:44.427Z,102057.06
2023-02-28T03:45:19.646Z,102043.13
2023-02-28T03:48:10.085Z,102047.00
2023-02-28T03:50:42.598Z,102043.63
2023-02-28T03:53:20.681Z,102048.91
2023-02-28T03:55:51.606Z,102041.47
2023-02-28T03:58:45.437Z,102041.94
2023-02-28T04:01:29.320Z,102042.19
2023-02-28T04:03:56.272Z,102040.41
2023-02-28T04:06:23.765Z,102043.00
2023-02-28T04:08:51.176Z,102043.75
2023-02-28T04:11:25.376Z,102056.19
2023-02-28T04:13:51.924Z,102050.66
2023-02-28T04:16:33.530Z,102051.63
2023-02-28T04:19:03.546Z,102053.69
2023-02-28T04:21:31.626Z,102048.63
2023-02-28T04:24:01.544Z,102055.03
2023-02-28T04:26:36.089Z,102052.13
2023-02-28T04:29:05.214Z,102057.81
2023-02-28T04:31:32.169Z,102052.75
2023-02-28T04:33:59.026Z,102062.50
2023-02-28T04:36:25.960Z,102060.84
2023-02-28T04:38:52.764Z,102062.75
2023-02-28T04:41:19.612Z,102060.06
2023-02-28T04:43:46.206Z,102065.28
2023-02-28T04:46:13.201Z,102062.75
2023-02-28T04:48:40.969Z,102066.34
2023-02-28T04:51:11.538Z,102066.22
2023-02-28T04:53:39.982Z,102063.09
2023-02-28T04:56:08.312Z,102070.59
2023-02-28T04:58:35.240Z,102063.00
2023-02-28T05:01:13.589Z,102066.56
2023-02-28T05:03:43.779Z,102058.47
2023-02-28T05:06:11.810Z,102050.91
2023-02-28T05:08:38.762Z,102048.16
2023-02-28T05:11:35.724Z,102049.66
2023-02-28T05:14:05.737Z,102046.97
2023-02-28T05:16:32.939Z,102044.56
2023-02-28T05:18:59.921Z,102044.38
2023-02-28T05:21:34.056Z,102036.78
2023-02-28T05:24:27.118Z,102037.00
2023-02-28T05:26:55.172Z,102040.75
2023-02-28T05:29:22.142Z,102039.00
2023-02-28T05:31:48.839Z,102032.53
2023-02-28T05:34:16.627Z,102029.00
2023-02-28T05:36:43.443Z,102038.41
2023-02-28T05:39:13.988Z,102035.50
2023-02-28T05:41:44.589Z,102043.41
2023-02-28T05:44:11.961Z,102044.44
2023-02-28T05:46:39.336Z,102044.75
2023-02-28T05:49:06.133Z,102051.78
2023-02-28T05:51:35.417Z,102045.91
2023-02-28T05:54:02.659Z,102053.31
2023-02-28T05:56:29.711Z,102049.25
2023-02-28T05:58:56.392Z,102051.78
2023-02-28T06:01:32.296Z,102054.44
2023-02-28T06:04:01.141Z,102056.19
2023-02-28T06:06:28.360Z,102062.81
2023-02-28T06:08:55.177Z,102060.59
2023-02-28T06:11:21.742Z,102063.66
2023-02-28T06:13:48.850Z,102069.31
2023-02-28T06:16:15.402Z,102064.69
2023-02-28T06:18:42.122Z,102063.41
2023-02-28T06:21:10.020Z,102076.28
2023-02-28T06:23:36.776Z,102078.59
2023-02-28T06:26:03.252Z,102078.22
2023-02-28T06:28:29.805Z,102087.91
2023-02-28T06:30:56.530Z,102084.66
2023-02-28T06:33:23.229Z,102080.56
2023-02-28T06:35:53.242Z,102090.88
2023-02-28T06:38:20.224Z,102095.84
2023-02-28T06:40:55.120Z,102096.06
2023-02-28T06:43:22.294Z,102095.44
2023-02-28T06:45:48.914Z,102105.75
2023-02-28T06:48:15.730Z,102103.50
2023-02-28T06:50:42.214Z,102103.44
2023-02-28T06:53:08.859Z,102119.09
2023-02-28T06:55:35.371Z,102108.00
2023-02-28T06:58:01.891Z,102109.13
2023-02-28T07:00:29.849Z,102105.03
2023-02-28T07:02:56.747Z,102116.75
2023-02-28T07:05:23.180Z,102113.97
2023-02-28T07:07:49.796Z,102109.63
2023-02-28T07:10:20.113Z,102117.84
2023-02-28T07:12:47.028Z,102117.84
2023-02-28T07:15:13.724Z,102118.66
2023-02-28T07:17:40.354Z,102122.88
2023-02-28T07:20:07.463Z,102124.31
2023-02-28T07:22:34.025Z,102124.31
2023-02-28T07:25:00.658Z,102123.22
2023-02-28T07:27:27.236Z,102130.06
2023-02-28T07:29:54.561Z,102130.06
2023-02-28T07:32:21.495Z,102127.41
2023-02-28T07:34:48.111Z,102138.03
2023-02-28T07:37:14.739Z,102126.59
2023-02-28T07:39:44.630Z,102130.06
2023-02-28T07:42:12.939Z,102129.38
2023-02-28T07:44:41.702Z,102128.38
2023-02-28T07:47:09.658Z,102128.28
2023-02-28T07:49:39.342Z,102123.53
2023-02-28T07:52:07.901Z,102125.34
2023-02-28T07:54:34.768Z,102124.41
2023-02-28T07:57:01.232Z,102123.16
2023-02-28T07:59:27.721Z,102131.59
2023-02-28T08:01:54.384Z,102132.28
2023-02-28T08:04:21.016Z,102134.78
2023-02-28T08:06:47.648Z,102126.69
2023-02-28T08:09:15.315Z,102134.56
2023-02-28T08:11:43.234Z,102138.88
2023-02-28T08:14:09.783Z,102132.59
2023-02-28T08:16:36.441Z,102127.03
2023-02-28T08:19:03.085Z,102133.78
2023-02-28T08:21:30.034Z,102125.41
2023-02-28T08:23:57.961Z,102134.66
2023-02-28T08:26:24.706Z,102130.53
2023-02-28T08:28:51.302Z,102123.44
2023-02-28T08:31:18.382Z,102125.19
2023-02-28T08:33:45.808Z,102131.22
2023-02-28T08:36:13.221Z,102130.19
2023-02-28T08:38:40.041Z,102136.78
2023-02-28T08:41:08.335Z,102128.88
2023-02-28T08:43:36.021Z,102138.41
2023-02-28T08:46:02.850Z,102130.19
2023-02-28T08:48:30.119Z,102132.06
2023-02-28T08:51:07.808Z,102139.91
2023-02-28T08:53:35.423Z,102138.38
2023-02-28T08:56:05.536Z,102136.56
2023-02-28T08:58:32.247Z,102136.00
2023-02-28T09:00:58.842Z,102131.94
2023-02-28T09:03:25.546Z,102135.69
2023-02-28T09:05:57.375Z,102141.28
2023-02-28T09:08:26.891Z,102141.84
2023-02-28T09:10:53.513Z,102133.88
2023-02-28T09:13:20.114Z,102138.75
2023-02-28T09:15:47.248Z,102143.50
2023-02-28T09:18:14.274Z,102135.66
2023-02-28T09:20:42.571Z,102145.19
2023-02-28T09:23:10.890Z,102152.69
2023-02-28T09:25:38.109Z,102139.75
2023-02-28T09:28:05.151Z,102139.13
2023-02-28T09:30:31.913Z,102143.53
2023-02-28T09:32:58.421Z,102147.56
2023-02-28T09:35:27.803Z,102139.47
2023-02-28T09:37:54.663Z,102142.84
2023-02-28T09:40:25.219Z,102143.47
2023-02-28T09:42:55.300Z,102146.09
2023-02-28T09:45:33.830Z,102141.25
2023-02-28T09:48:05.646Z,102137.69
2023-02-28T09:50:38.050Z,102142.84
2023-02-28T09:53:15.227Z,102141.94
2023-02-28T09:55:51.089Z,102139.84
2023-02-28T09:58:37.863Z,102147.81
2023-02-28T10:01:25.857Z,102149.19
2023-02-28T10:03:58.092Z,102143.25
2023-02-28T10:06:32.054Z,102141.94
2023-02-28T10:09:06.334Z,102136.09
2023-02-28T10:11:38.880Z,102130.41
2023-02-28T10:14:16.796Z,102133.66
2023-02-28T10:16:52.995Z,102138.00
2023-02-28T10:19:40.913Z,102135.13
2023-02-28T10:22:21.910Z,102134.63
2023-02-28T10:24:52.596Z,102138.28
2023-02-28T10:27:23.485Z,102141.97
2023-02-28T10:29:57.849Z,102135.72
2023-02-28T10:32:29.999Z,102131.81
2023-02-28T10:35:01.342Z,102126.75
2023-02-28T10:37:29.450Z,102129.06
2023-02-28T10:39:56.767Z,102125.97
2023-02-28T10:42:27.562Z,102119.56
2023-02-28T10:45:06.481Z,102113.47
2023-02-28T10:47:35.507Z,102117.09
2023-02-28T10:50:03.280Z,102118.72
2023-02-28T10:52:39.890Z,102120.00
2023-02-28T10:55:26.079Z,102121.91
2023-02-28T10:57:53.487Z,102122.88
2023-02-28T11:00:23.046Z,102120.59
2023-02-28T11:02:50.111Z,102116.66
2023-02-28T11:05:34.974Z,102112.78
2023-02-28T11:08:13.685Z,102114.38
2023-02-28T11:10:40.836Z,102115.16
2023-02-28T11:13:07.489Z,102114.88
2023-02-28T11:15:35.984Z,102111.91
2023-02-28T11:18:14.721Z,102100.06
2023-02-28T11:20:41.547Z,102100.13
2023-02-28T11:23:14.684Z,102085.56
2023-02-28T11:25:47.570Z,102087.31
2023-02-28T11:28:29.874Z,102090.00
2023-02-28T11:31:11.297Z,102086.75
2023-02-28T11:33:53.487Z,102078.28
2023-02-28T11:36:32.620Z,102080.06
2023-02-28T11:39:10.833Z,102072.53
2023-02-28T11:42:08.105Z,102073.66
2023-02-28T11:44:55.851Z,102071.34
2023-02-28T11:47:44.285Z,102068.00
2023-02-28T11:50:36.020Z,102062.81
2023-02-28T11:53:25.093Z,102062.25
2023-02-28T11:56:12.374Z,102068.38
2023-02-28T11:59:05.673Z,102061.09
2023-02-28T12:02:07.005Z,102058.34
2023-02-28T12:04:49.233Z,102055.94
2023-02-28T12:08:07.107Z,102053.09
2023-02-28T12:10:44.454Z,102058.09
2023-02-28T12:13:22.760Z,102049.66
2023-02-28T12:15:57.617Z,102047.78
2023-02-28T12:18:54.297Z,102039.13
2023-02-28T12:21:36.430Z,102038.75
2023-02-28T12:24:23.663Z,102042.91
2023-02-28T12:26:52.431Z,102041.28
2023-02-28T12:29:35.172Z,102038.09
2023-02-28T12:32:36.764Z,102042.31
2023-02-28T12:35:13.987Z,102042.47
2023-02-28T12:38:20.496Z,102040.09
2023-02-28T12:41:06.983Z,102036.59
2023-02-28T12:43:43.642Z,102034.41
2023-02-28T12:46:15.645Z,102030.09
2023-02-28T12:48:54.463Z,102030.19
2023-02-28T12:51:21.643Z,102031.47
2023-02-28T12:54:12.429Z,102024.53
2023-02-28T12:57:14.786Z,102016.47
2023-02-28T12:59:54.765Z,102023.78
2023-02-28T13:02:42.320Z,102016.31
2023-02-28T13:05:33.661Z,102013.59
2023-02-28T13:08:21.513Z,102012.69
2023-02-28T13:10:51.884Z,102014.06
2023-02-28T13:13:21.629Z,102013.97
2023-02-28T13:16:05.476Z,102004.41
2023-02-28T13:18:45.511Z,102006.47
2023-02-28T13:21:28.121Z,101998.78
2023-02-28T13:23:59.213Z,101984.81
2023-02-28T13:26:31.931Z,101978.59
2023-02-28T13:29:01.245Z,101981.44
2023-02-28T13:31:28.815Z,101978.56
2023-02-28T13:33:55.518Z,101975.22
2023-02-28T13:36:23.793Z,101971.47
2023-02-28T13:39:01.136Z,101977.09
2023-02-28T13:41:42.571Z,101978.16
2023-02-28T13:44:11.933Z,101968.16
2023-02-28T13:46:58.292Z,101951.34
2023-02-28T13:49:27.607Z,101963.56
2023-02-28T13:52:03.602Z,101957.91
2023-02-28T13:54:36.762Z,101966.41
2023-02-28T13:57:27.530Z,101963.94
2023-02-28T14:00:09.452Z,101962.84
2023-02-28T14:02:51.450Z,101958.47
2023-02-28T14:05:26.643Z,101967.59
2023-02-28T14:08:05.683Z,101959.72
2023-02-28T14:10:38.394Z,101961.75
2023-02-28T14:13:53.204Z,101963.03
2023-02-28T14:16:31.023Z,101962.16
2023-02-28T14:19:06.589Z,101963.19
2023-02-28T14:21:39.240Z,101965.50
2023-02-28T14:24:48.814Z,101965.34
2023-02-28T14:27:27.446Z,101970.13
2023-02-28T14:29:53.852Z,101974.66
2023-02-28T14:32:49.364Z,101973.25
2023-02-28T14:35:43.867Z,101970.16
2023-02-28T14:38:19.101Z,101972.19
2023-02-28T14:40:47.253Z,101968.44
2023-02-28T14:43:23.845Z,101968.03
2023-02-28T14:45:53.784Z,101963.44
2023-02-28T14:48:21.657Z,101972.94
2023-02-28T14:50:59.620Z,101959.69
2023-02-28T14:53:36.159Z,101957.16
2023-02-28T14:56:02.911Z,101968.13
2023-02-28T14:58:31.748Z,101971.56
2023-02-28T15:01:01.837Z,101971.75
2023-02-28T15:03:34.088Z,101968.81
2023-02-28T15:06:06.122Z,101970.66
2023-02-28T15:08:36.875Z,101961.91
2023-02-28T15:11:08.135Z,101959.22
2023-02-28T15:13:42.842Z,101955.69
2023-02-28T15:16:17.720Z,101954.75
2023-02-28T15:18:59.307Z,101957.66
2023-02-28T15:21:33.343Z,101958.88
2023-02-28T15:24:16.828Z,101956.38
2023-02-28T15:26:47.231Z,101947.44
2023-02-28T15:29:21.620Z,101953.28
2023-02-28T15:31:58.422Z,101951.41
2023-02-28T15:34:42.121Z,101952.19
2023-02-28T15:37:27.553Z,101953.44
2023-02-28T15:39:56.014Z,101945.00
2023-02-28T15:42:24.755Z,101943.53
2023-02-28T15:44:51.273Z,101950.94
2023-02-28T15:47:23.979Z,101956.53
2023-02-28T15:49:53.092Z,101952.50
2023-02-28T15:52:46.479Z,101954.84
2023-02-28T15:55:27.057Z,101948.13
2023-02-28T15:58:01.216Z,101946.59
2023-02-28T16:00:29.830Z,101951.47
2023-02-28T16:02:56.577Z,101954.94
2023-02-28T16:05:29.269Z,101941.03
2023-02-28T16:08:14.602Z,101944.81
2023-02-28T16:10:41.163Z,101944.00
2023-02-28T16:13:13.497Z,101943.59
2023-02-28T16:15:44.226Z,101943.78
2023-02-28T16:18:14.183Z,101954.28
2023-02-28T16:20:40.965Z,101948.34
2023-02-28T16:23:07.386Z,101955.31
2023-02-28T16:25:43.952Z,101955.03
2023-02-28T16:28:21.656Z,101960.81
2023-02-28T16:30:48.360Z,101959.13
2023-02-28T16:33:14.751Z,101956.38
2023-02-28T16:35:41.932Z,101966.75
2023-02-28T16:38:08.368Z,101961.47
2023-02-28T16:40:37.095Z,101965.56
2023-02-28T16:43:11.186Z,101971.69
2023-02-28T16:45:37.879Z,101973.19
2023-02-28T16:48:04.343Z,101979.75
2023-02-28T16:50:33.532Z,101979.41
2023-02-28T16:53:00.087Z,101973.84
2023-02-28T16:55:27.613Z,101979.50
2023-02-28T16:58:01.755Z,101981.03
2023-02-28T17:00:30.781Z,101986.56
2023-02-28T17:02:57.566Z,101986.38
2023-02-28T17:05:25.343Z,101985.78
2023-02-28T17:07:52.062Z,101979.81
2023-02-28T17:10:23.594Z,101985.28
2023-02-28T17:12:50.335Z,101986.59
2023-02-28T17:15:18.100Z,101990.81
2023-02-28T17:17:46.471Z,101991.06
2023-02-28T17:20:19.039Z,101997.50
2023-02-28T17:22:48.427Z,102000.28
2023-02-28T17:31:06.798Z,101994.75
2023-02-28T17:33:33.231Z,102000.63
2023-02-28T17:36:13.332Z,101996.28
2023-02-28T17:38:39.904Z,102001.53
2023-02-28T17:41:06.489Z,102005.09
2023-02-28T17:43:33.133Z,102014.00
2023-02-28T17:45:59.827Z,102015.84
2023-02-28T17:48:26.330Z,102019.81
2023-02-28T17:50:52.932Z,102016.38
2023-02-28T17:53:19.495Z,102019.25
2023-02-28T17:55:46.088Z,102022.09
2023-02-28T17:58:13.809Z,102014.03
2023-02-28T18:00:40.497Z,102024.94
2023-02-28T18:03:07.145Z,102025.59
2023-02-28T18:05:36.544Z,102022.91
2023-02-28T18:08:04.308Z,102030.13
2023-02-28T18:12:57.719Z,102022.72
2023-02-28T18:15:24.826Z,102016.34
2023-02-28T18:17:52.011Z,102020.88
2023-02-28T18:20:19.544Z,102017.31
2023-02-28T18:22:46.671Z,102022.66
2023-02-28T18:25:17.907Z,102021.13
2023-02-28T18:27:54.386Z,102023.09
2023-02-28T18:30:22.076Z,102021.38
2023-02-28T18:32:49.151Z,102030.88
2023-02-28T18:35:15.710Z,102025.97
2023-02-28T18:37:42.256Z,102020.03
2023-02-28T18:40:09.797Z,102020.50
2023-02-28T18:42:36.421Z,102018.25
2023-02-28T18:45:03.171Z,102013.81
2023-02-28T18:47:29.696Z,102023.59
2023-02-28T18:49:56.233Z,102017.38
2023-02-28T18:52:22.994Z,102018.97
2023-02-28T18:54:49.638Z,102026.91
2023-02-28T18:57:16.226Z,102024.88
2023-02-28T18:59:42.760Z,102017.66
2023-02-28T19:02:10.287Z,102019.22
2023-02-28T19:04:36.853Z,102020.03
2023-02-28T19:07:03.386Z,102017.97
2023-02-28T19:09:29.906Z,102014.25
2023-02-28T19:11:56.493Z,102012.47
2023-02-28T19:14:23.096Z,102015.03
2023-02-28T19:16:50.900Z,102010.63
2023-02-28T19:19:17.554Z,102010.53
2023-02-28T19:21:44.034Z,102023.47
2023-02-28T19:24:10.590Z,102012.56
2023-02-28T19:26:37.751Z,102011.50
2023-02-28T19:29:05.611Z,102007.63
2023-02-28T19:31:32.595Z,102004.00
2023-02-28T19:33:59.319Z,102018.63
2023-02-28T19:36:27.037Z,102011.06
2023-02-28T19:38:53.615Z,102015.28
2023-02-28T19:41:20.400Z,102016.72
2023-02-28T19:43:47.850Z,102017.47
2023-02-28T19:46:14.652Z,102021.84
2023-02-28T19:48:42.568Z,102028.31
2023-02-28T19:51:12.990Z,102019.75
2023-02-28T19:53:41.522Z,102017.41
2023-02-28T19:56:08.758Z,102021.91
2023-02-28T19:58:35.747Z,102026.84
2023-02-28T20:01:12.905Z,102026.72
2023-02-28T20:03:40.136Z,102027.56
2023-02-28T20:06:09.972Z,102025.31
2023-02-28T20:08:38.002Z,102035.69
2023-02-28T20:11:06.692Z,102036.97
2023-02-28T20:13:33.779Z,102036.81
2023-02-28T20:16:02.852Z,102046.19
2023-02-28T20:18:29.464Z,102037.38
2023-02-28T20:20:56.273Z,102050.41
2023-02-28T20:23:22.850Z,102048.28
2023-02-28T20:25:51.495Z,102048.72
2023-02-28T20:28:18.984Z,102046.06
2023-02-28T20:30:48.752Z,102052.22
2023-02-28T20:33:19.507Z,102059.47
2023-02-28T20:35:46.330Z,102057.78
2023-02-28T20:38:12.871Z,102064.53
2023-02-28T20:40:39.584Z,102064.47
2023-02-28T20:43:06.654Z,102065.84
2023-02-28T20:45:33.184Z,102069.06
2023-02-28T20:47:59.739Z,102072.09
2023-02-28T20:50:26.306Z,102074.22
2023-02-28T20:52:53.179Z,102074.59
2023-02-28T20:55:20.483Z,102067.25
2023-02-28T20:57:47.406Z,102060.75
2023-02-28T21:00:18.489Z,102057.19
2023-02-28T21:02:45.607Z,102058.88
2023-02-28T21:05:12.132Z,102049.78
2023-02-28T21:07:38.736Z,102052.00
2023-02-28T21:10:06.074Z,102049.88
2023-02-28T21:12:33.167Z,102048.59
2023-02-28T21:14:59.709Z,102053.34
2023-02-28T21:17:26.258Z,102055.56
2023-02-28T21:19:52.787Z,102055.81
2023-02-28T21:22:19.337Z,102058.88
2023-02-28T21:24:46.133Z,102059.13
2023-02-28T21:27:12.733Z,102062.03
2023-02-28T21:29:39.453Z,102062.44
2023-02-28T21:32:07.684Z,102059.34
2023-02-28T21:34:34.256Z,102059.84
2023-02-28T21:37:01.115Z,102060.25
2023-02-28T21:39:30.142Z,102059.38
2023-02-28T21:42:04.320Z,102072.34
2023-02-28T21:44:34.636Z,102062.13
2023-02-28T21:47:02.498Z,102068.06
2023-02-28T21:49:29.561Z,102069.44
2023-02-28T21:51:56.358Z,102065.38
2023-02-28T21:54:22.830Z,102059.94
2023-02-28T21:56:52.473Z,102064.63
2023-02-28T21:59:19.726Z,102063.47
2023-02-28T22:01:46.740Z,102057.56
2023-02-28T22:04:21.262Z,102058.66
2023-02-28T22:06:54.604Z,102056.03
2023-02-28T22:09:21.671Z,102054.13
2023-02-28T22:11:48.466Z,102065.00
2023-02-28T22:14:14.945Z,102057.91
2023-02-28T22:16:51.373Z,102060.78
2023-02-28T22:19:19.777Z,102055.16
2023-02-28T22:21:47.608Z,102048.41
2023-02-28T22:24:15.561Z,102057.59
2023-02-28T22:26:42.111Z,102050.88
2023-02-28T22:29:08.920Z,102043.00
2023-02-28T22:31:36.099Z,102037.91
2023-02-28T22:34:07.363Z,102041.22
2023-02-28T22:36:34.233Z,102040.28
2023-02-28T22:39:01.404Z,102036.22
2023-02-28T22:41:29.099Z,102048.72
2023-02-28T22:43:57.744Z,102043.69
2023-02-28T22:46:26.438Z,102038.66
2023-02-28T22:48:53.958Z,102045.16
2023-02-28T22:51:24.015Z,102049.47
2023-02-28T22:53:52.032Z,102045.50
2023-02-28T22:56:21.210Z,102043.00
2023-02-28T22:58:52.853Z,102045.63
2023-02-28T23:01:22.206Z,102048.78
2023-02-28T23:03:49.050Z,102047.34
2023-02-28T23:06:18.253Z,102039.47
2023-02-28T23:08:44.804Z,102040.38
2023-02-28T23:11:16.916Z,102044.22
2023-02-28T23:13:44.020Z,102051.72
2023-02-28T23:16:10.585Z,102048.47
2023-02-28T23:18:37.284Z,102043.50
2023-02-28T23:21:04.098Z,102048.22
2023-02-28T23:23:30.682Z,102049.28
2023-02-28T23:25:57.217Z,102046.78
2023-02-28T23:28:23.750Z,102042.81
2023-02-28T23:30:50.513Z,102046.66
2023-02-28T23:33:17.047Z,102054.97
2023-02-28T23:35:43.614Z,102053.53
2023-02-28T23:38:10.145Z,102052.91
2023-02-28T23:40:36.574Z,102065.41
2023-02-28T23:43:03.079Z,102067.34
2023-02-28T23:45:29.587Z,102060.63
2023-02-28T23:47:56.266Z,102062.53
2023-02-28T23:50:22.894Z,102068.06
2023-02-28T23:52:49.453Z,102073.59
2023-02-28T23:55:15.972Z,102073.00
2023-02-28T23:57:42.447Z,102067.09
